createdAt,value
2018-04-26T00:00:42.458Z,65.76
2018-04-26T00:03:10.029Z,65.89
2018-04-26T00:05:37.593Z,66.01
2018-04-26T00:08:05.211Z,66.18
2018-04-26T00:10:32.771Z,66.09
2018-04-26T00:13:00.949Z,65.78
2018-04-26T00:15:28.571Z,65.98
2018-04-26T00:17:56.154Z,66.27
2018-04-26T00:20:23.731Z,66.37
2018-04-26T00:22:51.346Z,66.71
2018-04-26T00:25:30.517Z,67.03
2018-04-26T00:27:58.165Z,66.98
2018-04-26T00:30:25.729Z,67.18
2018-04-26T00:32:53.299Z,66.61
2018-04-26T00:35:20.912Z,66.99
2018-04-26T00:37:48.471Z,67.41
2018-04-26T00:40:16.035Z,67.53
2018-04-26T00:42:43.764Z,67.85
2018-04-26T00:45:11.330Z,68.00
2018-04-26T00:47:38.904Z,68.13
2018-04-26T00:50:07.174Z,67.82
2018-04-26T00:52:34.900Z,67.79
2018-04-26T00:55:02.470Z,68.30
2018-04-26T00:57:30.093Z,68.32
2018-04-26T00:59:57.687Z,68.51
2018-04-26T01:02:25.264Z,68.17
2018-04-26T01:04:52.878Z,67.97
2018-04-26T01:07:20.446Z,68.32
2018-04-26T01:09:48.019Z,68.53
2018-04-26T01:12:15.667Z,68.67
2018-04-26T01:14:43.252Z,68.65
2018-04-26T01:17:10.823Z,68.39
2018-04-26T01:19:38.518Z,68.60
2018-04-26T01:27:24.537Z,68.42
2018-04-26T01:29:52.258Z,68.69
2018-04-26T01:32:19.888Z,68.89
2018-04-26T01:34:47.473Z,68.71
2018-04-26T01:37:26.981Z,69.10
2018-04-26T01:39:54.550Z,69.40
2018-04-26T01:42:22.120Z,69.38
2018-04-26T01:44:49.741Z,69.19
2018-04-26T01:47:17.335Z,69.63
2018-04-26T01:49:47.634Z,69.36
2018-04-26T01:52:16.155Z,69.36
2018-04-26T01:54:43.805Z,69.30
2018-04-26T01:57:11.404Z,69.46
2018-04-26T01:59:39.014Z,69.23
2018-04-26T02:02:06.599Z,69.07
2018-04-26T02:04:34.183Z,69.27
2018-04-26T02:07:01.897Z,69.50
2018-04-26T02:09:29.466Z,69.61
2018-04-26T02:11:57.021Z,69.47
2018-04-26T02:14:24.731Z,69.31
2018-04-26T02:16:52.643Z,69.71
2018-04-26T02:19:20.490Z,69.59
2018-04-26T02:21:48.107Z,69.70
2018-04-26T02:24:15.715Z,69.24
2018-04-26T02:26:43.308Z,69.50
2018-04-26T02:29:10.935Z,69.86
2018-04-26T02:31:38.581Z,69.87
2018-04-26T02:34:06.156Z,69.78
2018-04-26T02:36:33.940Z,70.21
2018-04-26T02:39:01.589Z,69.97
2018-04-26T02:41:29.187Z,69.93
2018-04-26T02:43:56.800Z,69.62
2018-04-26T02:46:24.376Z,69.87
2018-04-26T02:48:51.965Z,69.86
2018-04-26T02:51:19.755Z,69.81
2018-04-26T02:53:47.425Z,69.94
2018-04-26T02:56:15.668Z,70.27
2018-04-26T02:58:43.399Z,70.25
2018-04-26T03:01:11.940Z,70.10
2018-04-26T03:03:39.560Z,70.15
2018-04-26T03:06:07.268Z,70.61
2018-04-26T03:08:34.938Z,70.69
2018-04-26T03:11:02.527Z,70.64
2018-04-26T03:13:30.232Z,70.70
2018-04-26T03:15:57.902Z,71.08
2018-04-26T03:18:25.638Z,71.42
2018-04-26T03:20:53.330Z,71.50
2018-04-26T03:23:20.910Z,71.31
2018-04-26T03:25:48.548Z,71.71
2018-04-26T03:28:16.251Z,71.83
2018-04-26T03:30:43.904Z,71.77
2018-04-26T03:33:11.495Z,71.90
2018-04-26T03:35:39.184Z,72.12
2018-04-26T03:38:06.784Z,72.03
2018-04-26T03:40:34.801Z,72.34
2018-04-26T03:43:02.437Z,72.72
2018-04-26T03:45:32.828Z,73.16
2018-04-26T03:48:00.476Z,73.08
2018-04-26T03:50:28.107Z,73.34
2018-04-26T03:52:55.688Z,72.62
2018-04-26T03:55:23.328Z,72.78
2018-04-26T03:57:51.291Z,72.69
2018-04-26T04:00:30.579Z,72.69
2018-04-26T04:03:09.801Z,72.70
2018-04-26T04:06:01.068Z,72.82
2018-04-26T04:08:29.231Z,73.03
2018-04-26T04:10:56.827Z,73.41
2018-04-26T04:13:24.461Z,73.50
2018-04-26T04:15:52.197Z,73.71
2018-04-26T04:18:19.814Z,73.42
2018-04-26T04:20:47.459Z,73.28
2018-04-26T04:23:15.169Z,73.33
2018-04-26T04:25:42.744Z,73.35
2018-04-26T04:28:10.331Z,73.90
2018-04-26T04:30:38.016Z,73.65
2018-04-26T04:33:05.593Z,73.75
2018-04-26T04:35:33.179Z,72.35
2018-04-26T04:38:00.873Z,70.85
2018-04-26T04:40:28.523Z,70.95
2018-04-26T04:42:56.112Z,71.35
2018-04-26T04:45:23.839Z,70.29
2018-04-26T04:47:51.479Z,69.13
2018-04-26T04:50:19.151Z,68.13
2018-04-26T04:52:46.775Z,67.20
2018-04-26T04:55:14.831Z,66.12
2018-04-26T04:57:42.485Z,64.77
2018-04-26T05:00:10.243Z,62.92
2018-04-26T05:02:37.815Z,59.21
2018-04-26T05:05:05.529Z,57.92
2018-04-26T05:07:33.183Z,54.78
2018-04-26T05:10:00.824Z,53.18
2018-04-26T05:12:28.400Z,52.09
2018-04-26T05:14:56.032Z,48.82
2018-04-26T05:17:23.620Z,47.92
2018-04-26T05:19:51.195Z,45.91
2018-04-26T05:22:18.852Z,46.00
2018-04-26T05:24:46.439Z,43.03
2018-04-26T05:27:14.024Z,42.64
2018-04-26T05:29:41.634Z,42.11
2018-04-26T05:32:09.214Z,39.83
2018-04-26T05:34:36.798Z,39.42
2018-04-26T05:37:04.437Z,38.83
2018-04-26T05:39:32.035Z,37.63
2018-04-26T05:41:59.615Z,39.44
2018-04-26T05:44:27.344Z,38.66
2018-04-26T05:46:54.946Z,37.56
2018-04-26T05:49:22.552Z,38.07
2018-04-26T05:51:50.192Z,36.92
2018-04-26T05:54:17.786Z,35.73
2018-04-26T05:56:45.405Z,35.97
2018-04-26T05:59:13.015Z,35.98
2018-04-26T06:01:40.660Z,37.48
2018-04-26T06:04:08.245Z,39.41
2018-04-26T06:06:35.873Z,38.97
2018-04-26T06:09:03.552Z,40.93
2018-04-26T06:11:31.147Z,40.69
2018-04-26T06:13:58.780Z,42.07
2018-04-26T06:16:26.361Z,42.05
2018-04-26T06:18:53.945Z,41.11
2018-04-26T06:21:21.574Z,45.15
2018-04-26T06:23:49.160Z,44.53
2018-04-26T06:26:16.730Z,43.31
2018-04-26T06:28:44.466Z,43.59
2018-04-26T06:31:12.080Z,43.54
2018-04-26T06:33:39.651Z,45.06
2018-04-26T06:36:07.407Z,47.28
2018-04-26T06:38:34.993Z,44.21
2018-04-26T06:41:02.583Z,44.30
2018-04-26T06:43:30.309Z,43.62
2018-04-26T06:45:57.883Z,47.68
2018-04-26T06:48:25.478Z,42.96
2018-04-26T06:50:53.107Z,44.39
2018-04-26T06:53:20.681Z,47.12
2018-04-26T06:55:48.267Z,47.38
2018-04-26T06:58:15.920Z,47.56
2018-04-26T07:00:43.604Z,44.36
2018-04-26T07:03:11.293Z,44.38
2018-04-26T07:05:38.925Z,46.26
2018-04-26T07:08:06.546Z,45.31
2018-04-26T07:10:34.144Z,46.12
2018-04-26T07:13:01.865Z,45.08
2018-04-26T07:15:29.441Z,45.85
2018-04-26T07:17:57.032Z,45.76
2018-04-26T07:20:24.696Z,44.46
2018-04-26T07:22:52.327Z,45.30
2018-04-26T07:25:19.913Z,44.66
2018-04-26T07:27:47.540Z,41.72
2018-04-26T07:30:15.288Z,43.72
2018-04-26T07:32:42.859Z,44.26
2018-04-26T07:35:10.575Z,43.07
2018-04-26T07:37:38.177Z,44.21
2018-04-26T07:40:05.771Z,41.14
2018-04-26T07:42:33.504Z,40.38
2018-04-26T07:45:01.081Z,42.94
2018-04-26T07:47:28.662Z,42.85
2018-04-26T07:49:56.308Z,39.85
2018-04-26T07:52:23.922Z,42.20
2018-04-26T07:54:51.584Z,41.97
2018-04-26T07:57:19.218Z,42.86
2018-04-26T07:59:46.809Z,43.56
2018-04-26T08:02:14.403Z,43.80
2018-04-26T08:04:42.330Z,46.31
2018-04-26T08:07:22.932Z,44.22
2018-04-26T08:09:50.645Z,44.08
2018-04-26T08:12:18.308Z,41.21
2018-04-26T08:14:45.904Z,43.21
2018-04-26T08:17:13.984Z,41.78
2018-04-26T08:19:41.598Z,41.64
2018-04-26T08:22:09.241Z,41.69
2018-04-26T08:24:36.931Z,43.81
2018-04-26T08:27:04.510Z,41.56
2018-04-26T08:29:32.092Z,41.86
2018-04-26T08:31:59.780Z,42.57
2018-04-26T08:34:27.372Z,44.08
2018-04-26T08:36:54.967Z,40.98
2018-04-26T08:39:22.627Z,38.94
2018-04-26T08:41:50.211Z,41.19
2018-04-26T08:44:17.829Z,41.40
2018-04-26T08:46:45.473Z,40.39
2018-04-26T08:49:13.062Z,41.04
2018-04-26T08:51:40.643Z,38.86
2018-04-26T08:54:08.334Z,39.15
2018-04-26T08:56:35.993Z,40.45
2018-04-26T08:59:03.580Z,43.67
2018-04-26T09:01:31.361Z,42.84
2018-04-26T09:03:58.992Z,41.45
2018-04-26T09:06:27.082Z,42.37
2018-04-26T09:08:54.784Z,39.39
2018-04-26T09:11:22.384Z,42.25
2018-04-26T09:13:49.972Z,38.80
2018-04-26T09:16:17.717Z,38.36
2018-04-26T09:18:45.313Z,38.73
2018-04-26T09:21:12.997Z,37.68
2018-04-26T09:23:40.645Z,40.90
2018-04-26T09:26:08.246Z,36.83
2018-04-26T09:28:35.899Z,37.68
2018-04-26T09:31:03.531Z,39.57
2018-04-26T09:33:31.181Z,37.87
2018-04-26T09:35:58.828Z,37.33
2018-04-26T09:38:26.538Z,39.34
2018-04-26T09:40:54.155Z,36.18
2018-04-26T09:43:21.789Z,35.84
2018-04-26T09:45:50.328Z,39.64
2018-04-26T09:48:18.705Z,37.34
2018-04-26T09:50:47.092Z,39.78
2018-04-26T09:53:14.751Z,37.70
2018-04-26T09:55:42.345Z,39.51
2018-04-26T09:58:10.885Z,40.48
2018-04-26T10:00:42.517Z,38.34
2018-04-26T10:03:10.144Z,39.37
2018-04-26T10:05:41.636Z,39.69
2018-04-26T10:08:09.451Z,36.30
2018-04-26T10:10:37.041Z,39.39
2018-04-26T10:13:04.658Z,35.74
2018-04-26T10:15:32.283Z,34.75
2018-04-26T10:17:59.864Z,35.55
2018-04-26T10:20:27.449Z,38.70
2018-04-26T10:22:55.133Z,35.83
2018-04-26T10:25:22.749Z,37.65
2018-04-26T10:27:50.329Z,35.94
2018-04-26T10:30:17.959Z,35.98
2018-04-26T10:32:45.551Z,34.52
2018-04-26T10:35:13.125Z,32.85
2018-04-26T10:37:40.762Z,34.82
2018-04-26T10:40:08.368Z,33.90
2018-04-26T10:42:35.978Z,33.32
2018-04-26T10:45:03.667Z,35.00
2018-04-26T10:47:31.248Z,32.72
2018-04-26T10:49:58.905Z,34.29
2018-04-26T10:52:26.556Z,31.82
2018-04-26T10:54:54.200Z,33.93
2018-04-26T10:57:21.788Z,31.66
2018-04-26T10:59:49.442Z,31.51
2018-04-26T11:02:17.082Z,34.70
2018-04-26T11:04:44.768Z,31.89
2018-04-26T11:07:12.416Z,34.64
2018-04-26T11:09:40.235Z,32.75
2018-04-26T11:12:07.832Z,33.17
2018-04-26T11:14:35.561Z,33.22
2018-04-26T11:17:03.211Z,33.61
2018-04-26T11:19:30.816Z,31.81
2018-04-26T11:21:58.543Z,33.10
2018-04-26T11:24:26.166Z,30.58
2018-04-26T11:26:53.745Z,31.75
2018-04-26T11:29:21.383Z,29.80
2018-04-26T11:31:48.984Z,29.11
2018-04-26T11:34:16.572Z,29.95
2018-04-26T11:36:44.210Z,30.69
2018-04-26T11:39:11.784Z,31.06
2018-04-26T11:41:40.237Z,30.06
2018-04-26T11:44:07.937Z,30.83
2018-04-26T11:46:35.519Z,32.34
2018-04-26T11:49:03.781Z,30.28
2018-04-26T11:51:31.483Z,28.42
2018-04-26T11:53:59.132Z,33.39
2018-04-26T11:56:26.855Z,31.44
2018-04-26T11:58:54.444Z,30.83
2018-04-26T12:01:22.691Z,30.30
2018-04-26T12:03:50.259Z,30.69
2018-04-26T12:06:18.048Z,28.21
2018-04-26T12:08:45.623Z,29.00
2018-04-26T12:11:13.383Z,30.47
2018-04-26T12:13:41.004Z,29.80
2018-04-26T12:16:08.577Z,29.05
2018-04-26T12:18:36.300Z,28.52
2018-04-26T12:21:03.906Z,28.12
2018-04-26T12:23:31.494Z,28.21
2018-04-26T12:25:59.071Z,28.33
2018-04-26T12:28:26.759Z,26.76
2018-04-26T12:30:54.340Z,29.33
2018-04-26T12:33:21.988Z,28.51
2018-04-26T12:35:49.626Z,27.53
2018-04-26T12:38:17.235Z,28.28
2018-04-26T12:40:44.808Z,28.70
2018-04-26T12:43:12.519Z,29.56
2018-04-26T12:45:40.100Z,28.02
2018-04-26T12:48:07.684Z,28.88
2018-04-26T12:50:36.078Z,29.23
2018-04-26T12:53:03.662Z,28.51
2018-04-26T12:55:31.244Z,27.89
2018-04-26T12:57:58.864Z,27.77
2018-04-26T13:00:26.447Z,27.39
2018-04-26T13:02:54.129Z,27.33
2018-04-26T13:05:23.817Z,27.65
2018-04-26T13:07:52.050Z,27.02
2018-04-26T13:10:19.685Z,27.79
2018-04-26T13:12:47.525Z,27.32
2018-04-26T13:15:15.161Z,26.98
2018-04-26T13:17:42.732Z,27.26
2018-04-26T13:20:11.118Z,30.27
2018-04-26T13:22:39.401Z,27.99
2018-04-26T13:25:07.003Z,28.00
2018-04-26T13:27:34.632Z,29.14
2018-04-26T13:30:03.085Z,29.27
2018-04-26T13:32:30.663Z,29.52
2018-04-26T13:35:00.671Z,28.86
2018-04-26T13:37:28.559Z,29.83
2018-04-26T13:39:56.195Z,28.82
2018-04-26T13:42:23.816Z,29.66
2018-04-26T13:44:51.617Z,30.81
2018-04-26T13:47:19.321Z,29.94
2018-04-26T13:49:46.966Z,30.21
2018-04-26T13:52:14.544Z,30.08
2018-04-26T13:54:42.154Z,29.90
2018-04-26T13:57:10.247Z,30.00
2018-04-26T13:59:37.824Z,30.21
2018-04-26T14:02:05.399Z,30.11
2018-04-26T14:04:33.043Z,29.91
2018-04-26T14:07:00.660Z,30.00
2018-04-26T14:09:28.235Z,31.91
2018-04-26T14:11:55.876Z,31.84
2018-04-26T14:14:23.739Z,31.15
2018-04-26T14:16:51.316Z,31.65
2018-04-26T14:19:19.041Z,31.25
2018-04-26T14:21:46.675Z,32.42
2018-04-26T14:24:14.255Z,31.53
2018-04-26T14:26:42.054Z,33.68
2018-04-26T14:29:09.707Z,32.97
2018-04-26T14:31:37.277Z,31.99
2018-04-26T14:34:05.021Z,31.72
2018-04-26T14:36:33.542Z,31.76
2018-04-26T14:39:01.196Z,31.51
2018-04-26T14:41:31.763Z,32.45
2018-04-26T14:43:59.377Z,33.44
2018-04-26T14:46:26.955Z,30.82
2018-04-26T14:48:54.597Z,31.35
2018-04-26T14:51:22.189Z,33.30
2018-04-26T14:53:49.891Z,33.25
2018-04-26T14:56:17.544Z,31.77
2018-04-26T14:58:45.138Z,32.06
2018-04-26T15:01:12.790Z,31.88
2018-04-26T15:03:40.480Z,30.65
2018-04-26T15:06:08.844Z,32.77
2018-04-26T15:08:36.447Z,33.02
2018-04-26T15:11:04.143Z,30.92
2018-04-26T15:13:31.787Z,33.04
2018-04-26T15:16:00.616Z,32.71
2018-04-26T15:18:28.320Z,31.62
2018-04-26T15:20:55.964Z,33.38
2018-04-26T15:23:23.547Z,32.03
2018-04-26T15:25:51.160Z,33.94
2018-04-26T15:28:18.748Z,34.33
2018-04-26T15:30:46.359Z,33.67
2018-04-26T15:33:14.176Z,33.93
2018-04-26T15:35:41.822Z,34.56
2018-04-26T15:38:09.394Z,34.08
2018-04-26T15:40:37.120Z,35.12
2018-04-26T15:43:04.702Z,34.34
2018-04-26T15:45:32.289Z,35.21
2018-04-26T15:47:59.976Z,36.14
2018-04-26T15:50:51.404Z,35.03
2018-04-26T15:53:30.986Z,34.17
2018-04-26T15:56:10.589Z,33.77
2018-04-26T15:58:49.949Z,33.89
2018-04-26T16:01:27.164Z,34.87
2018-04-26T16:04:06.744Z,35.12
2018-04-26T16:06:46.001Z,34.82
2018-04-26T16:12:32.158Z,34.92
2018-04-26T16:15:11.739Z,34.97
2018-04-26T16:17:57.040Z,34.02
2018-04-26T16:20:41.986Z,33.65
2018-04-26T16:23:27.015Z,34.69
2018-04-26T16:26:06.493Z,38.36
2018-04-26T16:28:51.467Z,39.62
2018-04-26T16:31:36.655Z,39.75
2018-04-26T16:34:16.225Z,40.90
2018-04-26T16:36:55.678Z,41.10
2018-04-26T16:39:23.975Z,41.51
2018-04-26T16:41:51.578Z,41.56
2018-04-26T16:44:19.276Z,42.08
2018-04-26T16:46:46.842Z,42.94
2018-04-26T16:49:14.436Z,41.98
2018-04-26T16:51:42.140Z,43.13
2018-04-26T16:54:09.802Z,42.74
2018-04-26T16:56:37.423Z,42.96
2018-04-26T16:59:05.066Z,43.76
2018-04-26T17:01:32.642Z,44.90
2018-04-26T17:04:00.241Z,45.13
2018-04-26T17:06:27.967Z,45.04
2018-04-26T17:08:55.556Z,44.43
2018-04-26T17:11:23.148Z,44.66
2018-04-26T17:13:51.083Z,44.55
2018-04-26T17:16:18.737Z,44.70
2018-04-26T17:18:46.420Z,44.98
2018-04-26T17:21:14.059Z,45.06
2018-04-26T17:23:41.647Z,45.33
2018-04-26T17:26:09.306Z,48.17
2018-04-26T17:28:37.000Z,47.27
2018-04-26T17:31:04.655Z,47.14
2018-04-26T17:33:32.248Z,46.69
2018-04-26T17:35:59.963Z,47.69
2018-04-26T17:38:27.551Z,46.91
2018-04-26T17:40:56.103Z,47.91
2018-04-26T17:43:23.755Z,47.00
2018-04-26T17:45:51.351Z,46.79
2018-04-26T17:48:19.819Z,47.95
2018-04-26T17:50:47.593Z,46.33
2018-04-26T17:53:15.285Z,45.46
2018-04-26T17:55:42.868Z,44.38
2018-04-26T17:58:10.553Z,45.44
2018-04-26T18:00:38.137Z,46.40
2018-04-26T18:03:05.745Z,44.13
2018-04-26T18:05:33.527Z,46.09
2018-04-26T18:08:01.176Z,47.32
2018-04-26T18:10:28.774Z,46.33
2018-04-26T18:12:56.485Z,45.73
2018-04-26T18:15:24.205Z,45.69
2018-04-26T18:17:51.779Z,43.94
2018-04-26T18:20:20.490Z,45.59
2018-04-26T18:22:48.076Z,46.05
2018-04-26T18:25:15.740Z,45.42
2018-04-26T18:27:43.475Z,46.90
2018-04-26T18:30:11.088Z,46.49
2018-04-26T18:32:38.707Z,46.57
2018-04-26T18:35:06.370Z,46.32
2018-04-26T18:37:33.956Z,46.07
2018-04-26T18:40:01.633Z,46.58
2018-04-26T18:42:29.329Z,47.05
2018-04-26T18:44:56.923Z,47.14
2018-04-26T18:47:24.573Z,47.36
2018-04-26T18:49:52.284Z,47.51
2018-04-26T18:52:19.879Z,48.08
2018-04-26T18:54:47.525Z,47.93
2018-04-26T18:57:15.248Z,47.20
2018-04-26T18:59:43.765Z,48.20
2018-04-26T19:02:11.348Z,48.48
2018-04-26T19:04:39.078Z,48.29
2018-04-26T19:07:06.735Z,48.43
2018-04-26T19:09:34.311Z,48.76
2018-04-26T19:12:02.054Z,48.53
2018-04-26T19:14:29.698Z,48.94
2018-04-26T19:16:57.330Z,48.70
2018-04-26T19:19:25.045Z,48.64
2018-04-26T19:21:52.911Z,48.82
2018-04-26T19:24:20.506Z,48.88
2018-04-26T19:26:48.148Z,49.37
2018-04-26T19:29:15.752Z,49.10
2018-04-26T19:31:43.349Z,49.80
2018-04-26T19:34:10.985Z,49.84
2018-04-26T19:36:38.641Z,50.06
2018-04-26T19:39:06.271Z,50.17
2018-04-26T19:41:33.896Z,50.26
2018-04-26T19:44:01.570Z,50.39
2018-04-26T19:46:29.155Z,50.26
2018-04-26T19:48:56.783Z,49.86
2018-04-26T19:51:24.441Z,49.68
2018-04-26T19:53:52.030Z,50.00
2018-04-26T19:56:19.676Z,50.54
2018-04-26T19:58:47.309Z,49.82
2018-04-26T20:01:14.925Z,50.67
2018-04-26T20:03:42.656Z,50.34
2018-04-26T20:06:10.341Z,51.59
2018-04-26T20:08:38.005Z,52.00
2018-04-26T20:11:05.647Z,52.47
2018-04-26T20:13:33.237Z,51.93
2018-04-26T20:16:01.028Z,51.71
2018-04-26T20:18:28.735Z,52.24
2018-04-26T20:20:56.375Z,52.11
2018-04-26T20:23:24.204Z,52.79
2018-04-26T20:25:51.852Z,53.24
2018-04-26T20:28:19.586Z,52.84
2018-04-26T20:30:47.166Z,53.10
2018-04-26T20:33:14.834Z,53.31
2018-04-26T20:35:42.438Z,53.25
2018-04-26T20:38:10.027Z,53.48
2018-04-26T20:40:37.663Z,53.20
2018-04-26T20:43:05.251Z,53.82
2018-04-26T20:45:32.925Z,53.80
2018-04-26T20:48:00.615Z,53.97
2018-04-26T20:50:28.294Z,54.19
2018-04-26T20:52:55.811Z,53.56
2018-04-26T20:55:23.569Z,53.72
2018-04-26T20:57:51.245Z,54.32
2018-04-26T21:00:18.881Z,55.34
2018-04-26T21:02:46.571Z,54.87
2018-04-26T21:05:14.279Z,55.15
2018-04-26T21:07:42.021Z,54.42
2018-04-26T21:10:09.843Z,54.96
2018-04-26T21:12:37.467Z,55.17
2018-04-26T21:15:05.134Z,55.74
2018-04-26T21:17:32.875Z,55.61
2018-04-26T21:20:00.581Z,55.40
2018-04-26T21:22:28.282Z,55.59
2018-04-26T21:24:56.793Z,56.23
2018-04-26T21:27:24.446Z,56.45
2018-04-26T21:29:52.148Z,55.69
2018-04-26T21:32:19.827Z,56.05
2018-04-26T21:34:47.483Z,56.51
2018-04-26T21:37:15.176Z,56.89
2018-04-26T21:39:42.868Z,57.00
2018-04-26T21:42:10.538Z,56.22
2018-04-26T21:44:38.362Z,56.11
2018-04-26T21:47:06.083Z,56.13
2018-04-26T21:49:33.742Z,56.95
2018-04-26T21:52:07.028Z,56.53
2018-04-26T21:54:40.180Z,56.82
2018-04-26T21:57:14.213Z,57.06
2018-04-26T21:59:47.444Z,57.62
2018-04-26T22:02:20.852Z,57.59
2018-04-26T22:07:57.687Z,56.81
2018-04-26T22:10:25.330Z,57.12
2018-04-26T22:12:52.986Z,56.97
2018-04-26T22:15:20.739Z,57.67
2018-04-26T22:17:48.395Z,57.58
2018-04-26T22:20:16.087Z,57.06
2018-04-26T22:22:43.899Z,57.66
2018-04-26T22:25:11.671Z,58.13
2018-04-26T22:27:39.320Z,57.88
2018-04-26T22:30:07.006Z,58.09
2018-04-26T22:32:34.655Z,58.44
2018-04-26T22:35:02.297Z,58.66
2018-04-26T22:37:29.979Z,59.26
2018-04-26T22:39:57.624Z,59.34
2018-04-26T22:42:25.519Z,59.92
2018-04-26T22:44:53.211Z,59.38
2018-04-26T22:47:21.020Z,59.79
2018-04-26T22:49:48.687Z,60.12
2018-04-26T22:52:16.458Z,60.34
2018-04-26T22:54:44.119Z,60.70
2018-04-26T22:57:11.740Z,61.18
2018-04-26T22:59:39.539Z,61.35
2018-04-26T23:02:07.190Z,61.51
2018-04-26T23:04:34.824Z,61.67
2018-04-26T23:07:02.599Z,61.34
2018-04-26T23:09:30.310Z,61.53
2018-04-26T23:11:57.963Z,61.70
2018-04-26T23:14:25.736Z,61.84
2018-04-26T23:16:54.259Z,61.58
2018-04-26T23:19:21.907Z,61.76
2018-04-26T23:21:49.641Z,62.05
2018-04-26T23:24:17.340Z,61.62
2018-04-26T23:26:45.132Z,61.53
2018-04-26T23:29:12.812Z,61.58
2018-04-26T23:31:40.463Z,61.69
2018-04-26T23:34:08.097Z,61.62
2018-04-26T23:36:35.791Z,61.72
2018-04-26T23:39:03.540Z,62.00
2018-04-26T23:41:31.223Z,62.29
2018-04-26T23:43:59.070Z,62.88
2018-04-26T23:46:26.778Z,63.13
2018-04-26T23:48:54.485Z,62.35
2018-04-26T23:51:22.176Z,62.31
2018-04-26T23:53:49.815Z,62.23
2018-04-26T23:56:17.459Z,62.53
2018-04-26T23:58:45.150Z,62.91
